Главная страница
METAR-TAF:

METAR-TAF

Аэропорты :

Острова Яп, Микронезия

Яп

широта: 09-29N, долгота: 138-05E, высота над уровнем моря: 28 м

Текущие метеонаблюдения

Эта сводка был подготовлена 1 час и 8 минут назад, в 04:50 UTC
Ветер 10 Узел от восточный
Температура 29°C
Влажность 79%
Давление 1004 hPa
Видимость: 19.3 км
небольшая облачность на высоте 1600 фута
Отдельные облака на высоте 13000 фута
Рассеянная облачность на высоте 30000 фута

METAR: PTYA 240450Z 08010KT 12SM FEW016 SCT130 BKN300 29/25 A2966 RMK SLP046 T02880251

Время: 15:58 (05:58 UTC)

Прогноз

Эта сводка был подготовлена 38 минут назад, в 05:20 UTC
Прогноз действительный с 24-го 06 UTC до 25-го 06 UTC
Ветер 8 Узел от восточно-северо-восточный
Видимость: 10 км
небольшая облачность на высоте 1800 фута
Отдельные облака на высоте 5000 фута
Рассеянная облачность на высоте 14000 фута
ливни в окрестностях

TAF: PTYA 240520Z 2406/2506 07008KT P6SM VCSH FEW018 SCT050 BKN140

Метеонаблюдения и прогнозы для более 4000 аэропортов (сводки METAR и TAF).

Имеющиеся станции представлены на карте желтыми и красными точками.

Чтобы увидеть название станции, наведите на нее мышь.

Затем щелкните, чтобы увидеть метеонаблюдения и метеопрогнозы.

Управление картой: чтобы увеличить масштаб, щелкните зеленые кнопки с черным крестиком; чтобы уменьшить масштаб, щелкните зеленую кнопку с тире; для просмотра соседних карт щелкайте зеленые стрелки.


METAR-TAF: